createdAt,value
2023-04-23T00:01:48.178Z,96906.34
2023-04-23T00:04:19.125Z,96903.88
2023-04-23T00:06:47.047Z,96902.19
2023-04-23T00:09:16.337Z,96896.53
2023-04-23T00:11:43.243Z,96903.09
2023-04-23T00:14:10.012Z,96903.25
2023-04-23T00:16:37.177Z,96904.31
2023-04-23T00:19:03.916Z,96903.56
2023-04-23T00:21:30.546Z,96896.38
2023-04-23T00:23:57.203Z,96894.19
2023-04-23T00:26:23.795Z,96905.06
2023-04-23T00:28:50.447Z,96897.72
2023-04-23T00:31:17.031Z,96906.75
2023-04-23T00:33:43.576Z,96904.56
2023-04-23T00:36:10.110Z,96908.56
2023-04-23T00:38:36.749Z,96902.00
2023-04-23T00:41:03.791Z,96905.06
2023-04-23T00:43:31.240Z,96902.44
2023-04-23T00:45:57.907Z,96906.13
2023-04-23T00:48:24.708Z,96901.06
2023-04-23T00:50:59.277Z,96903.25
2023-04-23T00:53:26.303Z,96914.25
2023-04-23T00:55:53.675Z,96901.69
2023-04-23T00:58:21.222Z,96900.78
2023-04-23T01:00:49.293Z,96902.44
2023-04-23T01:03:18.671Z,96896.19
2023-04-23T01:05:45.616Z,96894.50
2023-04-23T01:08:15.899Z,96893.59
2023-04-23T01:10:44.642Z,96907.34
2023-04-23T01:13:13.318Z,96902.31
2023-04-23T01:15:40.008Z,96903.19
2023-04-23T01:18:08.028Z,96908.72
2023-04-23T01:20:35.542Z,96913.00
2023-04-23T01:23:05.919Z,96915.75
2023-04-23T01:25:32.754Z,96915.09
2023-04-23T01:27:59.688Z,96907.72
2023-04-23T01:30:27.730Z,96915.09
2023-04-23T01:32:58.064Z,96912.97
2023-04-23T01:35:26.026Z,96910.50
2023-04-23T01:37:53.931Z,96912.03
2023-04-23T01:40:21.551Z,96904.69
2023-04-23T01:42:49.286Z,96903.03
2023-04-23T01:45:17.856Z,96906.69
2023-04-23T01:47:44.540Z,96906.84
2023-04-23T01:50:11.447Z,96910.78
2023-04-23T01:52:38.120Z,96904.06
2023-04-23T01:55:05.066Z,96909.41
2023-04-23T01:57:31.825Z,96914.41
2023-04-23T02:00:08.460Z,96911.38
2023-04-23T02:02:35.872Z,96918.41
2023-04-23T02:05:06.260Z,96922.22
2023-04-23T02:07:34.260Z,96920.84
2023-04-23T02:10:02.152Z,96919.47
2023-04-23T02:12:28.732Z,96923.91
2023-04-23T02:14:55.327Z,96924.50
2023-04-23T02:17:23.172Z,96930.47
2023-04-23T02:19:50.111Z,96928.63
2023-04-23T02:22:17.731Z,96928.53
2023-04-23T02:24:44.564Z,96930.59
2023-04-23T02:27:11.217Z,96934.16
2023-04-23T02:29:38.285Z,96932.34
2023-04-23T02:32:05.140Z,96931.56
2023-04-23T02:34:31.704Z,96924.50
2023-04-23T02:36:58.380Z,96929.06
2023-04-23T02:39:24.947Z,96929.41
2023-04-23T02:41:51.482Z,96923.41
2023-04-23T02:44:18.144Z,96926.16
2023-04-23T02:46:44.707Z,96928.69
2023-04-23T02:49:11.334Z,96929.66
2023-04-23T02:51:37.854Z,96938.78
2023-04-23T02:54:04.494Z,96938.78
2023-04-23T02:56:31.224Z,96945.22
2023-04-23T02:58:57.828Z,96934.34
2023-04-23T03:01:24.554Z,96939.28
2023-04-23T03:03:51.422Z,96937.56
2023-04-23T03:06:18.185Z,96938.13
2023-04-23T03:08:44.761Z,96939.34
2023-04-23T03:11:11.299Z,96939.34
2023-04-23T03:13:37.995Z,96940.09
2023-04-23T03:16:04.734Z,96936.28
2023-04-23T03:18:31.288Z,96942.56
2023-04-23T03:20:57.906Z,96948.50
2023-04-23T03:23:24.695Z,96955.34
2023-04-23T03:25:51.268Z,96953.69
2023-04-23T03:28:17.843Z,96951.38
2023-04-23T03:30:44.496Z,96959.19
2023-04-23T03:33:11.071Z,96956.44
2023-04-23T03:35:37.701Z,96956.88
2023-04-23T03:38:04.273Z,96960.06
2023-04-23T03:40:31.191Z,96952.38
2023-04-23T03:42:58.143Z,96951.16
2023-04-23T03:45:25.672Z,96951.47
2023-04-23T03:47:52.223Z,96950.97
2023-04-23T03:50:18.883Z,96950.22
2023-04-23T03:52:45.466Z,96950.47
2023-04-23T03:55:12.398Z,96952.88
2023-04-23T03:57:39.352Z,96963.00
2023-04-23T04:00:11.884Z,96969.66
2023-04-23T04:02:39.553Z,96970.75
2023-04-23T04:05:06.924Z,96968.75
2023-04-23T04:07:34.470Z,96964.72
2023-04-23T04:10:03.298Z,96972.34
2023-04-23T04:12:29.907Z,96963.38
2023-04-23T04:14:56.571Z,96967.91
2023-04-23T04:17:23.191Z,96968.31
2023-04-23T04:19:49.835Z,96968.81
2023-04-23T04:22:16.422Z,96970.78
2023-04-23T04:24:44.005Z,96972.69
2023-04-23T04:27:11.790Z,96973.56
2023-04-23T04:29:40.914Z,96978.81
2023-04-23T04:32:11.655Z,96979.22
2023-04-23T04:34:38.546Z,96983.63
2023-04-23T04:37:05.475Z,96990.75
2023-04-23T04:39:32.051Z,96990.00
2023-04-23T04:41:59.988Z,96982.00
2023-04-23T04:44:26.569Z,96997.47
2023-04-23T04:46:54.039Z,97007.13
2023-04-23T04:49:22.044Z,96999.69
2023-04-23T04:51:48.653Z,97013.19
2023-04-23T04:54:15.226Z,97013.53
2023-04-23T04:56:41.879Z,97018.91
2023-04-23T04:59:08.431Z,97029.44
2023-04-23T05:01:35.351Z,97024.72
2023-04-23T05:04:02.068Z,97033.28
2023-04-23T05:06:28.912Z,97037.34
2023-04-23T05:08:55.443Z,97040.91
2023-04-23T05:11:22.020Z,97053.22
2023-04-23T05:13:48.965Z,97049.38
2023-04-23T05:16:15.911Z,97057.94
2023-04-23T05:18:42.684Z,97060.56
2023-04-23T05:21:09.497Z,97066.50
2023-04-23T05:23:36.653Z,97063.09
2023-04-23T05:26:04.160Z,97077.91
2023-04-23T05:28:31.558Z,97072.41
2023-04-23T05:30:58.819Z,97069.88
2023-04-23T05:33:30.723Z,97079.88
2023-04-23T05:35:59.961Z,97080.53
2023-04-23T05:38:26.554Z,97083.56
2023-04-23T05:40:53.109Z,97092.91
2023-04-23T05:43:19.708Z,97096.84
2023-04-23T05:45:46.465Z,97097.75
2023-04-23T05:48:13.088Z,97095.22
2023-04-23T05:50:39.661Z,97096.63
2023-04-23T05:53:06.648Z,97097.00
2023-04-23T05:55:33.160Z,97100.81
2023-04-23T05:57:59.894Z,97104.75
2023-04-23T06:00:26.596Z,97103.31
2023-04-23T06:02:53.597Z,97099.28
2023-04-23T06:05:20.923Z,97113.16
2023-04-23T06:07:48.249Z,97111.34
2023-04-23T06:10:14.789Z,97107.47
2023-04-23T06:12:42.469Z,97114.53
2023-04-23T06:15:09.925Z,97108.38
2023-04-23T06:17:36.858Z,97121.00
2023-04-23T06:20:05.244Z,97112.97
2023-04-23T06:22:32.762Z,97101.28
2023-04-23T06:24:59.603Z,97102.66
2023-04-23T06:27:27.270Z,97105.06
2023-04-23T06:29:53.970Z,97104.97
2023-04-23T06:32:21.916Z,97101.28
2023-04-23T06:35:00.302Z,97102.31
2023-04-23T06:37:29.835Z,97106.53
2023-04-23T06:39:56.713Z,97110.72
2023-04-23T06:42:23.487Z,97115.00
2023-04-23T06:44:51.990Z,97110.56
2023-04-23T06:47:19.480Z,97109.50
2023-04-23T06:49:46.390Z,97106.63
2023-04-23T06:52:13.020Z,97116.16
2023-04-23T06:54:39.786Z,97108.66
2023-04-23T06:57:06.796Z,97099.06
2023-04-23T06:59:33.514Z,97107.31
2023-04-23T07:02:01.121Z,97112.97
2023-04-23T07:04:27.754Z,97105.09
2023-04-23T07:06:54.313Z,97108.84
2023-04-23T07:09:20.939Z,97106.06
2023-04-23T07:11:47.552Z,97111.94
2023-04-23T07:14:14.120Z,97100.53
2023-04-23T07:16:40.938Z,97101.41
2023-04-23T07:19:07.551Z,97094.22
2023-04-23T07:21:34.133Z,97091.47
2023-04-23T07:24:03.427Z,97092.25
2023-04-23T07:26:29.991Z,97082.03
2023-04-23T07:28:56.669Z,97084.47
2023-04-23T07:31:24.047Z,97085.13
2023-04-23T07:33:50.756Z,97080.50
2023-04-23T07:36:17.378Z,97092.03
2023-04-23T07:38:43.987Z,97094.09
2023-04-23T07:41:10.518Z,97092.66
2023-04-23T07:43:37.120Z,97086.59
2023-04-23T07:46:03.767Z,97086.09
2023-04-23T07:48:30.325Z,97074.56
2023-04-23T07:50:57.322Z,97073.81
2023-04-23T07:53:23.930Z,97077.53
2023-04-23T07:55:50.504Z,97085.56
2023-04-23T07:58:17.418Z,97086.41
2023-04-23T08:00:43.943Z,97083.25
2023-04-23T08:03:10.772Z,97075.00
2023-04-23T08:05:38.781Z,97071.16
2023-04-23T08:08:05.470Z,97066.09
2023-04-23T08:10:32.272Z,97064.09
2023-04-23T08:12:58.851Z,97052.28
2023-04-23T08:15:25.430Z,97032.41
2023-04-23T08:17:52.078Z,97020.03
2023-04-23T08:20:18.791Z,97030.09
2023-04-23T08:22:45.426Z,97027.63
2023-04-23T08:25:13.289Z,97025.66
2023-04-23T08:27:39.849Z,97034.41
2023-04-23T08:30:07.592Z,97029.28
2023-04-23T08:32:34.307Z,97026.47
2023-04-23T08:35:00.949Z,97011.75
2023-04-23T08:37:31.303Z,97017.13
2023-04-23T08:39:58.046Z,97019.59
2023-04-23T08:42:37.164Z,97012.13
2023-04-23T08:45:05.256Z,97018.78
2023-04-23T08:47:32.454Z,97019.50
2023-04-23T08:49:59.811Z,97014.03
2023-04-23T08:52:29.559Z,97013.94
2023-04-23T08:55:01.222Z,97019.03
2023-04-23T08:57:28.305Z,97017.13
2023-04-23T08:59:55.893Z,97020.06
2023-04-23T09:02:23.245Z,97016.84
2023-04-23T09:04:51.790Z,97018.69
2023-04-23T09:07:19.210Z,97010.03
2023-04-23T09:09:45.782Z,97005.41
2023-04-23T09:12:12.437Z,97002.94
2023-04-23T09:14:39.087Z,97001.41
2023-04-23T09:17:05.816Z,96997.69
2023-04-23T09:19:32.665Z,96991.38
2023-04-23T09:22:02.207Z,96974.06
2023-04-23T09:24:28.798Z,96976.38
2023-04-23T09:26:55.309Z,96977.19
2023-04-23T09:29:24.911Z,96981.59
2023-04-23T09:31:54.212Z,96988.41
2023-04-23T09:34:22.652Z,96992.13
2023-04-23T09:36:51.279Z,96996.25
2023-04-23T09:39:20.252Z,96988.91
2023-04-23T09:41:46.895Z,96968.38
2023-04-23T09:44:18.943Z,96966.38
2023-04-23T09:46:45.501Z,96970.69
2023-04-23T09:49:15.632Z,96977.72
2023-04-23T09:51:48.055Z,96980.63
2023-04-23T09:54:16.493Z,96983.69
2023-04-23T09:56:43.582Z,96982.94
2023-04-23T09:59:35.519Z,96976.81
2023-04-23T10:02:11.562Z,96972.41
2023-04-23T10:04:38.888Z,96966.28
2023-04-23T10:07:18.933Z,96971.41
2023-04-23T10:09:47.732Z,96964.91
2023-04-23T10:14:46.646Z,96964.41
2023-04-23T10:17:13.906Z,96966.88
2023-04-23T10:19:43.720Z,96964.06
2023-04-23T10:22:19.299Z,96949.81
2023-04-23T10:24:49.543Z,96956.00
2023-04-23T10:27:28.796Z,96943.53
2023-04-23T10:30:06.398Z,96948.50
2023-04-23T10:32:37.503Z,96954.59
2023-04-23T10:35:04.936Z,96943.69
2023-04-23T10:37:31.982Z,96937.75
2023-04-23T10:40:04.814Z,96933.75
2023-04-23T10:42:32.029Z,96930.59
2023-04-23T10:45:04.708Z,96926.41
2023-04-23T10:47:37.874Z,96920.88
2023-04-23T10:50:27.741Z,96918.41
2023-04-23T10:52:55.445Z,96906.72
2023-04-23T10:55:25.116Z,96905.41
2023-04-23T10:58:00.858Z,96908.19
2023-04-23T11:00:30.965Z,96908.72
2023-04-23T11:02:57.681Z,96909.88
2023-04-23T11:05:26.020Z,96907.25
2023-04-23T11:10:51.930Z,96900.03
2023-04-23T11:13:26.331Z,96896.28
2023-04-23T11:16:21.707Z,96896.53
2023-04-23T11:19:03.526Z,96886.47
2023-04-23T11:21:59.670Z,96881.44
2023-04-23T11:24:34.513Z,96880.88
2023-04-23T11:27:01.488Z,96878.09
2023-04-23T11:29:28.987Z,96877.97
2023-04-23T11:34:26.303Z,96875.69
2023-04-23T11:36:57.369Z,96865.28
2023-04-23T11:39:24.772Z,96871.97
2023-04-23T11:41:52.574Z,96863.97
2023-04-23T11:44:21.397Z,96866.44
2023-04-23T11:46:49.686Z,96865.84
2023-04-23T11:49:18.746Z,96860.06
2023-04-23T11:51:46.552Z,96861.47
2023-04-23T11:54:13.871Z,96857.16
2023-04-23T11:56:41.648Z,96848.41
2023-04-23T11:59:08.323Z,96849.75
2023-04-23T12:01:45.093Z,96837.59
2023-04-23T12:04:12.142Z,96839.03
2023-04-23T12:06:41.200Z,96832.22
2023-04-23T12:09:08.048Z,96831.84
2023-04-23T12:11:35.934Z,96830.16
2023-04-23T12:14:02.858Z,96827.13
2023-04-23T12:16:36.392Z,96829.38
2023-04-23T12:19:03.551Z,96812.47
2023-04-23T12:21:30.276Z,96823.44
2023-04-23T12:23:58.626Z,96827.09
2023-04-23T12:26:26.284Z,96806.69
2023-04-23T12:28:54.808Z,96806.38
2023-04-23T12:31:27.964Z,96805.44
2023-04-23T12:34:05.812Z,96797.03
2023-04-23T12:36:33.221Z,96793.59
2023-04-23T12:39:32.538Z,96793.66
2023-04-23T12:42:04.931Z,96789.88
2023-04-23T12:44:35.616Z,96782.81
2023-04-23T12:47:07.707Z,96784.03
2023-04-23T12:49:35.896Z,96776.00
2023-04-23T12:52:04.174Z,96775.84
2023-04-23T12:54:38.807Z,96771.78
2023-04-23T12:57:07.060Z,96762.00
2023-04-23T12:59:34.003Z,96754.53
2023-04-23T13:02:03.932Z,96752.50
2023-04-23T13:04:32.466Z,96757.38
2023-04-23T13:06:59.183Z,96752.41
2023-04-23T13:09:28.124Z,96752.47
2023-04-23T13:11:55.566Z,96743.56
2023-04-23T13:14:22.203Z,96733.59
2023-04-23T13:16:49.198Z,96732.66
2023-04-23T13:19:17.498Z,96733.31
2023-04-23T13:21:44.540Z,96724.53
2023-04-23T13:24:11.069Z,96726.84
2023-04-23T13:26:38.136Z,96728.94
2023-04-23T13:29:05.082Z,96723.25
2023-04-23T13:31:32.147Z,96708.28
2023-04-23T13:33:59.001Z,96701.03
2023-04-23T13:36:25.731Z,96694.47
2023-04-23T13:38:52.690Z,96692.25
2023-04-23T13:41:19.206Z,96686.56
2023-04-23T13:43:45.843Z,96674.03
2023-04-23T13:46:12.527Z,96674.03
2023-04-23T13:48:39.127Z,96666.44
2023-04-23T13:51:13.500Z,96666.88
2023-04-23T13:53:43.984Z,96663.66
2023-04-23T13:56:10.743Z,96661.09
2023-04-23T13:58:37.330Z,96658.75
2023-04-23T14:01:04.552Z,96655.72
2023-04-23T14:03:31.296Z,96659.44
2023-04-23T14:05:58.711Z,96654.81
2023-04-23T14:08:25.546Z,96643.41
2023-04-23T14:10:52.288Z,96647.94
2023-04-23T14:13:18.878Z,96652.41
2023-04-23T14:15:45.456Z,96636.63
2023-04-23T14:18:12.080Z,96638.50
2023-04-23T14:20:38.594Z,96634.22
2023-04-23T14:23:45.494Z,96621.75
2023-04-23T14:26:22.509Z,96624.63
2023-04-23T14:28:51.963Z,96623.06
2023-04-23T14:31:18.497Z,96611.13
2023-04-23T14:33:45.020Z,96617.19
2023-04-23T14:36:11.666Z,96618.50
2023-04-23T14:38:38.199Z,96608.25
2023-04-23T14:41:04.747Z,96603.78
2023-04-23T14:43:33.652Z,96589.16
2023-04-23T14:46:01.717Z,96583.34
2023-04-23T14:48:28.418Z,96584.38
2023-04-23T14:50:54.960Z,96580.41
2023-04-23T14:53:21.693Z,96585.34
2023-04-23T14:55:48.327Z,96574.41
2023-04-23T14:58:14.843Z,96569.13
2023-04-23T15:00:41.518Z,96563.81
2023-04-23T15:03:11.079Z,96555.44
2023-04-23T15:05:40.039Z,96552.63
2023-04-23T15:08:06.626Z,96548.63
2023-04-23T15:10:33.232Z,96553.81
2023-04-23T15:13:08.186Z,96542.78
2023-04-23T15:15:45.375Z,96536.38
2023-04-23T15:18:13.799Z,96533.22
2023-04-23T15:20:40.507Z,96532.94
2023-04-23T15:23:07.176Z,96528.38
2023-04-23T15:25:34.454Z,96527.88
2023-04-23T15:28:01.471Z,96525.97
2023-04-23T15:30:28.570Z,96521.03
2023-04-23T15:32:55.778Z,96529.00
2023-04-23T15:35:23.184Z,96526.41
2023-04-23T15:37:49.880Z,96518.78
2023-04-23T15:40:16.910Z,96515.31
2023-04-23T15:42:44.637Z,96507.19
2023-04-23T15:45:12.283Z,96513.50
2023-04-23T15:47:39.339Z,96505.47
2023-04-23T15:50:06.777Z,96500.31
2023-04-23T15:52:33.734Z,96500.72
2023-04-23T15:55:01.046Z,96501.47
2023-04-23T15:57:27.634Z,96498.84
2023-04-23T15:59:55.777Z,96495.38
2023-04-23T16:02:22.636Z,96497.03
2023-04-23T16:04:51.325Z,96494.06
2023-04-23T16:07:18.021Z,96487.59
2023-04-23T16:09:44.662Z,96487.34
2023-04-23T16:12:11.478Z,96487.53
2023-04-23T16:14:38.309Z,96483.47
2023-04-23T16:17:04.866Z,96485.84
2023-04-23T16:19:31.434Z,96480.94
2023-04-23T16:21:58.015Z,96477.59
2023-04-23T16:24:24.758Z,96491.13
2023-04-23T16:26:51.295Z,96483.22
2023-04-23T16:29:22.814Z,96482.44
2023-04-23T16:31:50.286Z,96482.56
2023-04-23T16:34:17.077Z,96475.25
2023-04-23T16:36:43.816Z,96478.41
2023-04-23T16:39:11.518Z,96475.59
2023-04-23T16:41:38.223Z,96474.38
2023-04-23T16:44:04.838Z,96475.78
2023-04-23T16:46:31.961Z,96472.47
2023-04-23T16:48:58.911Z,96468.59
2023-04-23T16:51:27.008Z,96463.16
2023-04-23T16:53:53.905Z,96458.00
2023-04-23T16:56:21.109Z,96454.69
2023-04-23T16:58:47.679Z,96452.00
2023-04-23T17:01:14.900Z,96445.03
2023-04-23T17:03:41.797Z,96438.81
2023-04-23T17:06:29.501Z,96441.47
2023-04-23T17:09:00.394Z,96440.25
2023-04-23T17:11:28.509Z,96435.94
2023-04-23T17:13:55.911Z,96437.34
2023-04-23T17:16:23.283Z,96431.25
2023-04-23T17:18:49.888Z,96428.84
2023-04-23T17:21:17.057Z,96424.66
2023-04-23T17:23:43.556Z,96420.09
2023-04-23T17:26:10.363Z,96410.25
2023-04-23T17:28:36.987Z,96412.19
2023-04-23T17:31:04.056Z,96411.94
2023-04-23T17:33:31.321Z,96411.94
2023-04-23T17:35:57.942Z,96416.69
2023-04-23T17:38:25.113Z,96404.81
2023-04-23T17:40:52.926Z,96408.84
2023-04-23T17:43:20.384Z,96421.41
2023-04-23T17:45:47.854Z,96419.91
2023-04-23T17:48:15.443Z,96420.78
2023-04-23T17:50:42.645Z,96427.25
2023-04-23T17:53:09.554Z,96430.22
2023-04-23T17:55:36.161Z,96437.22
2023-04-23T17:58:05.657Z,96431.31
2023-04-23T18:00:37.226Z,96432.53
2023-04-23T18:03:04.438Z,96442.38
2023-04-23T18:05:31.480Z,96443.78
2023-04-23T18:07:58.353Z,96446.00
2023-04-23T18:10:25.145Z,96454.19
2023-04-23T18:12:51.981Z,96453.03
2023-04-23T18:15:18.709Z,96451.41
2023-04-23T18:17:45.567Z,96451.75
2023-04-23T18:20:12.715Z,96444.53
2023-04-23T18:22:41.312Z,96440.22
2023-04-23T18:25:10.175Z,96436.19
2023-04-23T18:27:36.777Z,96438.84
2023-04-23T18:30:05.723Z,96446.84
2023-04-23T18:32:40.064Z,96450.25
2023-04-23T18:35:08.219Z,96456.22
2023-04-23T18:37:49.128Z,96447.22
2023-04-23T18:40:15.673Z,96453.84
2023-04-23T18:42:42.194Z,96460.63
2023-04-23T18:45:10.210Z,96459.69
2023-04-23T18:47:50.896Z,96477.22
2023-04-23T18:50:35.431Z,96486.16
2023-04-23T18:53:02.296Z,96486.16
2023-04-23T18:55:28.811Z,96493.97
2023-04-23T18:57:56.238Z,96499.19
2023-04-23T19:00:23.242Z,96510.50
2023-04-23T19:02:49.847Z,96513.91
2023-04-23T19:05:16.825Z,96516.00
2023-04-23T19:07:43.751Z,96511.97
2023-04-23T19:10:11.783Z,96499.19
2023-04-23T19:12:38.432Z,96485.16
2023-04-23T19:15:06.036Z,96487.41
2023-04-23T19:17:32.752Z,96485.28
2023-04-23T19:19:59.259Z,96506.31
2023-04-23T19:22:25.906Z,96521.22
2023-04-23T19:24:52.593Z,96541.63
2023-04-23T19:27:19.283Z,96560.00
2023-04-23T19:29:46.625Z,96563.09
2023-04-23T19:32:13.229Z,96564.19
2023-04-23T19:34:39.812Z,96554.28
2023-04-23T19:37:06.754Z,96566.31
2023-04-23T19:39:33.399Z,96562.66
2023-04-23T19:42:02.678Z,96563.44
2023-04-23T19:44:29.334Z,96575.19
2023-04-23T19:46:56.630Z,96590.28
2023-04-23T19:49:23.379Z,96619.31
2023-04-23T19:51:53.346Z,96607.72
2023-04-23T19:54:19.897Z,96613.19
2023-04-23T19:56:46.660Z,96613.22
2023-04-23T19:59:20.952Z,96606.34
2023-04-23T20:01:48.316Z,96601.16
2023-04-23T20:04:15.282Z,96616.25
2023-04-23T20:06:42.080Z,96615.34
2023-04-23T20:09:18.080Z,96604.63
2023-04-23T20:11:46.054Z,96600.97
2023-04-23T20:14:13.153Z,96610.13
2023-04-23T20:16:40.960Z,96611.66
2023-04-23T20:19:11.501Z,96609.53
2023-04-23T20:21:42.860Z,96602.50
2023-04-23T20:24:15.641Z,96598.19
2023-04-23T20:26:42.198Z,96601.53
2023-04-23T20:29:08.729Z,96592.69
2023-04-23T20:31:35.613Z,96602.28
2023-04-23T20:34:02.392Z,96588.88
2023-04-23T20:36:30.492Z,96604.25
2023-04-23T20:39:03.328Z,96608.22
2023-04-23T20:41:32.212Z,96612.47
2023-04-23T20:43:59.402Z,96603.03
2023-04-23T20:46:26.432Z,96608.84
2023-04-23T20:48:53.109Z,96603.66
2023-04-23T20:51:23.831Z,96607.31
2023-04-23T20:53:51.586Z,96606.38
2023-04-23T20:56:18.765Z,96598.00
2023-04-23T20:58:45.343Z,96599.41
2023-04-23T21:01:11.892Z,96610.81
2023-04-23T21:03:39.455Z,96601.19
2023-04-23T21:06:10.752Z,96606.69
2023-04-23T21:08:41.277Z,96592.81
2023-04-23T21:11:11.341Z,96592.66
2023-04-23T21:13:38.314Z,96595.09
2023-04-23T21:16:05.052Z,96607.28
2023-04-23T21:18:31.654Z,96597.84
2023-04-23T21:20:58.301Z,96592.81
2023-04-23T21:23:24.825Z,96595.69
2023-04-23T21:25:51.823Z,96598.63
2023-04-23T21:28:19.201Z,96593.75
2023-04-23T21:30:52.720Z,96596.63
2023-04-23T21:33:21.054Z,96594.19
2023-04-23T21:35:48.736Z,96588.66
2023-04-23T21:38:15.407Z,96586.81
2023-04-23T21:40:41.963Z,96587.41
2023-04-23T21:43:08.554Z,96596.84
2023-04-23T21:45:36.138Z,96586.34
2023-04-23T21:48:03.089Z,96591.06
2023-04-23T21:50:31.280Z,96602.63
2023-04-23T21:52:58.667Z,96606.25
2023-04-23T21:55:29.519Z,96614.38
2023-04-23T21:58:03.248Z,96627.91
2023-04-23T22:00:42.647Z,96636.09
2023-04-23T22:03:09.776Z,96633.63
2023-04-23T22:05:36.966Z,96629.34
2023-04-23T22:08:03.683Z,96634.34
2023-04-23T22:10:30.244Z,96636.63
2023-04-23T22:12:56.994Z,96643.78
2023-04-23T22:15:23.517Z,96647.25
2023-04-23T22:17:50.775Z,96640.97
2023-04-23T22:20:19.123Z,96658.31
2023-04-23T22:22:46.173Z,96652.94
2023-04-23T22:25:13.143Z,96656.91
2023-04-23T22:27:41.290Z,96659.59
2023-04-23T22:30:09.493Z,96658.75
2023-04-23T22:32:36.914Z,96663.38
2023-04-23T22:35:03.912Z,96660.72
2023-04-23T22:37:31.893Z,96665.44
2023-04-23T22:39:58.723Z,96670.72
2023-04-23T22:42:25.375Z,96675.34
2023-04-23T22:44:51.969Z,96663.84
2023-04-23T22:47:18.677Z,96663.84
2023-04-23T22:49:45.945Z,96673.59
2023-04-23T22:52:14.333Z,96680.97
2023-04-23T22:54:41.584Z,96669.94
2023-04-23T22:57:08.887Z,96668.31
2023-04-23T22:59:36.042Z,96673.75
2023-04-23T23:02:02.548Z,96661.50
2023-04-23T23:04:29.111Z,96678.53
2023-04-23T23:06:55.796Z,96671.69
2023-04-23T23:09:22.380Z,96674.72
2023-04-23T23:11:48.945Z,96669.63
2023-04-23T23:14:15.674Z,96675.97
2023-04-23T23:16:42.423Z,96670.16
2023-04-23T23:19:08.923Z,96674.72
2023-04-23T23:21:35.488Z,96679.09
2023-04-23T23:24:01.975Z,96665.56
2023-04-23T23:26:29.056Z,96670.16
2023-04-23T23:28:55.838Z,96660.28
2023-04-23T23:31:26.105Z,96653.47
2023-04-23T23:33:53.601Z,96647.06
2023-04-23T23:36:20.239Z,96648.59
2023-04-23T23:38:46.738Z,96647.97
2023-04-23T23:41:13.302Z,96647.06
2023-04-23T23:43:39.840Z,96641.06
2023-04-23T23:46:06.487Z,96642.50
2023-04-23T23:48:33.057Z,96642.88
2023-04-23T23:50:59.680Z,96639.75
2023-04-23T23:53:26.502Z,96632.84
2023-04-23T23:55:53.062Z,96631.22
2023-04-23T23:58:19.696Z,96634.19
